sensor_id;sensor_type;location;lat;lon;timestamp;temperature;humidity
35692;DHT22;26978;44.830;-0.674;2023-05-10T00:00:24;12.00;99.90
35692;DHT22;26978;44.830;-0.674;2023-05-10T00:02:49;11.90;99.90
35692;DHT22;26978;44.830;-0.674;2023-05-10T00:05:15;11.80;99.90
35692;DHT22;26978;44.830;-0.674;2023-05-10T00:07:40;11.80;99.90
35692;DHT22;26978;44.830;-0.674;2023-05-10T00:10:10;11.70;99.90
35692;DHT22;26978;44.830;-0.674;2023-05-10T00:12:36;11.70;99.90
35692;DHT22;26978;44.830;-0.674;2023-05-10T00:15:02;11.60;99.90
35692;DHT22;26978;44.830;-0.674;2023-05-10T00:17:28;11.50;99.90
35692;DHT22;26978;44.830;-0.674;2023-05-10T00:19:54;11.50;99.90
35692;DHT22;26978;44.830;-0.674;2023-05-10T00:22:20;11.40;99.90
35692;DHT22;26978;44.830;-0.674;2023-05-10T00:24:45;11.30;99.90
35692;DHT22;26978;44.830;-0.674;2023-05-10T00:27:11;11.30;99.90
35692;DHT22;26978;44.830;-0.674;2023-05-10T00:29:37;11.30;99.90
35692;DHT22;26978;44.830;-0.674;2023-05-10T00:32:03;11.20;99.90
35692;DHT22;26978;44.830;-0.674;2023-05-10T00:34:28;11.30;99.90
35692;DHT22;26978;44.830;-0.674;2023-05-10T00:36:54;11.30;99.90
35692;DHT22;26978;44.830;-0.674;2023-05-10T00:39:20;11.30;99.90
35692;DHT22;26978;44.830;-0.674;2023-05-10T00:41:45;11.20;99.90
35692;DHT22;26978;44.830;-0.674;2023-05-10T00:44:11;11.20;99.90
35692;DHT22;26978;44.830;-0.674;2023-05-10T00:46:37;11.10;99.90
35692;DHT22;26978;44.830;-0.674;2023-05-10T00:49:02;11.10;99.90
35692;DHT22;26978;44.830;-0.674;2023-05-10T00:51:28;11.00;99.90
35692;DHT22;26978;44.830;-0.674;2023-05-10T00:53:54;10.90;99.90
35692;DHT22;26978;44.830;-0.674;2023-05-10T00:56:21;11.00;99.90
35692;DHT22;26978;44.830;-0.674;2023-05-10T00:58:48;11.00;99.90
35692;DHT22;26978;44.830;-0.674;2023-05-10T01:01:14;11.00;99.90
35692;DHT22;26978;44.830;-0.674;2023-05-10T01:03:40;11.00;99.90
35692;DHT22;26978;44.830;-0.674;2023-05-10T01:06:07;11.10;99.90
35692;DHT22;26978;44.830;-0.674;2023-05-10T01:08:33;11.20;99.90
35692;DHT22;26978;44.830;-0.674;2023-05-10T01:10:59;11.20;99.90
35692;DHT22;26978;44.830;-0.674;2023-05-10T01:13:38;11.30;99.90
35692;DHT22;26978;44.830;-0.674;2023-05-10T01:16:06;11.30;99.90
35692;DHT22;26978;44.830;-0.674;2023-05-10T01:18:38;11.30;99.90
35692;DHT22;26978;44.830;-0.674;2023-05-10T01:40:37;11.10;99.90
35692;DHT22;26978;44.830;-0.674;2023-05-10T01:43:10;11.10;99.90
35692;DHT22;26978;44.830;-0.674;2023-05-10T01:46:09;11.10;99.90
35692;DHT22;26978;44.830;-0.674;2023-05-10T01:48:57;11.00;99.90
35692;DHT22;26978;44.830;-0.674;2023-05-10T01:51:25;11.00;99.90
35692;DHT22;26978;44.830;-0.674;2023-05-10T01:54:00;11.00;99.90
35692;DHT22;26978;44.830;-0.674;2023-05-10T01:56:29;10.90;99.90
35692;DHT22;26978;44.830;-0.674;2023-05-10T01:58:56;10.90;99.90
35692;DHT22;26978;44.830;-0.674;2023-05-10T02:01:24;11.00;99.90
35692;DHT22;26978;44.830;-0.674;2023-05-10T02:03:51;11.00;99.90
35692;DHT22;26978;44.830;-0.674;2023-05-10T02:06:20;11.00;99.90
35692;DHT22;26978;44.830;-0.674;2023-05-10T02:08:49;11.00;99.90
35692;DHT22;26978;44.830;-0.674;2023-05-10T02:11:15;11.00;99.90
35692;DHT22;26978;44.830;-0.674;2023-05-10T02:13:42;11.00;99.90
35692;DHT22;26978;44.830;-0.674;2023-05-10T02:16:09;10.90;99.90
35692;DHT22;26978;44.830;-0.674;2023-05-10T02:18:35;10.80;99.90
35692;DHT22;26978;44.830;-0.674;2023-05-10T02:21:02;10.90;99.90
35692;DHT22;26978;44.830;-0.674;2023-05-10T02:23:29;10.80;99.90
35692;DHT22;26978;44.830;-0.674;2023-05-10T02:25:57;10.80;99.90
35692;DHT22;26978;44.830;-0.674;2023-05-10T02:28:24;10.70;99.90
35692;DHT22;26978;44.830;-0.674;2023-05-10T02:30:52;10.70;99.90
35692;DHT22;26978;44.830;-0.674;2023-05-10T02:33:19;10.70;99.90
35692;DHT22;26978;44.830;-0.674;2023-05-10T02:35:46;10.60;99.90
35692;DHT22;26978;44.830;-0.674;2023-05-10T02:38:14;10.60;99.90
35692;DHT22;26978;44.830;-0.674;2023-05-10T02:40:42;10.70;99.90
35692;DHT22;26978;44.830;-0.674;2023-05-10T02:43:12;10.70;99.90
35692;DHT22;26978;44.830;-0.674;2023-05-10T02:45:38;10.60;99.90
35692;DHT22;26978;44.830;-0.674;2023-05-10T02:48:05;10.60;99.90
35692;DHT22;26978;44.830;-0.674;2023-05-10T02:50:33;10.60;99.90
35692;DHT22;26978;44.830;-0.674;2023-05-10T02:53:11;10.50;99.90
35692;DHT22;26978;44.830;-0.674;2023-05-10T02:55:41;10.50;99.90
35692;DHT22;26978;44.830;-0.674;2023-05-10T02:58:08;10.50;99.90
35692;DHT22;26978;44.830;-0.674;2023-05-10T03:00:34;10.40;99.90
35692;DHT22;26978;44.830;-0.674;2023-05-10T03:03:01;10.30;99.90
35692;DHT22;26978;44.830;-0.674;2023-05-10T03:05:27;10.30;99.90
35692;DHT22;26978;44.830;-0.674;2023-05-10T03:07:53;10.20;99.90
35692;DHT22;26978;44.830;-0.674;2023-05-10T03:10:20;10.20;99.90
35692;DHT22;26978;44.830;-0.674;2023-05-10T03:15:55;10.20;99.90
35692;DHT22;26978;44.830;-0.674;2023-05-10T03:18:29;10.20;99.90
35692;DHT22;26978;44.830;-0.674;2023-05-10T03:21:02;10.30;99.90
35692;DHT22;26978;44.830;-0.674;2023-05-10T03:26:07;10.20;99.90
35692;DHT22;26978;44.830;-0.674;2023-05-10T03:28:34;10.20;99.90
35692;DHT22;26978;44.830;-0.674;2023-05-10T03:31:02;10.20;99.90
35692;DHT22;26978;44.830;-0.674;2023-05-10T03:33:27;10.10;99.90
35692;DHT22;26978;44.830;-0.674;2023-05-10T03:35:54;10.20;99.90
35692;DHT22;26978;44.830;-0.674;2023-05-10T03:38:19;10.10;99.90
35692;DHT22;26978;44.830;-0.674;2023-05-10T03:40:45;10.10;99.90
35692;DHT22;26978;44.830;-0.674;2023-05-10T03:43:11;10.10;99.90
35692;DHT22;26978;44.830;-0.674;2023-05-10T03:45:36;10.00;99.90
35692;DHT22;26978;44.830;-0.674;2023-05-10T03:48:02;10.00;99.90
35692;DHT22;26978;44.830;-0.674;2023-05-10T03:50:28;10.00;99.90
35692;DHT22;26978;44.830;-0.674;2023-05-10T03:52:54;10.00;99.90
35692;DHT22;26978;44.830;-0.674;2023-05-10T03:55:19;10.00;99.90
35692;DHT22;26978;44.830;-0.674;2023-05-10T03:57:45;10.00;99.90
35692;DHT22;26978;44.830;-0.674;2023-05-10T04:00:11;10.00;99.90
35692;DHT22;26978;44.830;-0.674;2023-05-10T04:02:37;10.10;99.90
35692;DHT22;26978;44.830;-0.674;2023-05-10T04:05:03;10.00;99.90
35692;DHT22;26978;44.830;-0.674;2023-05-10T04:07:28;10.10;99.90
35692;DHT22;26978;44.830;-0.674;2023-05-10T04:09:54;10.10;99.90
35692;DHT22;26978;44.830;-0.674;2023-05-10T04:12:20;10.10;99.90
35692;DHT22;26978;44.830;-0.674;2023-05-10T04:14:45;10.00;99.90
35692;DHT22;26978;44.830;-0.674;2023-05-10T04:17:11;10.00;99.90
35692;DHT22;26978;44.830;-0.674;2023-05-10T04:19:37;10.00;99.90
35692;DHT22;26978;44.830;-0.674;2023-05-10T04:22:03;10.10;99.90
35692;DHT22;26978;44.830;-0.674;2023-05-10T04:24:28;10.10;99.90
35692;DHT22;26978;44.830;-0.674;2023-05-10T04:26:54;10.20;99.90
35692;DHT22;26978;44.830;-0.674;2023-05-10T04:29:20;10.40;99.90
35692;DHT22;26978;44.830;-0.674;2023-05-10T04:31:46;10.40;99.90
35692;DHT22;26978;44.830;-0.674;2023-05-10T04:34:12;10.50;99.90
35692;DHT22;26978;44.830;-0.674;2023-05-10T04:36:38;10.50;99.90
35692;DHT22;26978;44.830;-0.674;2023-05-10T04:39:04;10.60;99.90
35692;DHT22;26978;44.830;-0.674;2023-05-10T04:41:30;10.60;99.90
35692;DHT22;26978;44.830;-0.674;2023-05-10T04:43:56;10.70;99.90
35692;DHT22;26978;44.830;-0.674;2023-05-10T04:46:21;10.80;99.90
35692;DHT22;26978;44.830;-0.674;2023-05-10T04:48:47;10.90;99.90
35692;DHT22;26978;44.830;-0.674;2023-05-10T04:51:13;11.00;99.90
35692;DHT22;26978;44.830;-0.674;2023-05-10T04:53:39;11.00;99.90
35692;DHT22;26978;44.830;-0.674;2023-05-10T04:56:04;11.10;99.90
35692;DHT22;26978;44.830;-0.674;2023-05-10T04:58:30;11.10;99.90
35692;DHT22;26978;44.830;-0.674;2023-05-10T05:00:56;11.20;99.90
35692;DHT22;26978;44.830;-0.674;2023-05-10T05:03:22;11.20;99.90
35692;DHT22;26978;44.830;-0.674;2023-05-10T05:05:48;11.20;99.90
35692;DHT22;26978;44.830;-0.674;2023-05-10T05:08:14;11.20;99.90
35692;DHT22;26978;44.830;-0.674;2023-05-10T05:10:39;11.30;99.90
35692;DHT22;26978;44.830;-0.674;2023-05-10T05:13:05;11.40;99.90
35692;DHT22;26978;44.830;-0.674;2023-05-10T05:15:31;11.40;99.90
35692;DHT22;26978;44.830;-0.674;2023-05-10T05:17:56;11.50;99.90
35692;DHT22;26978;44.830;-0.674;2023-05-10T05:20:22;11.50;99.90
35692;DHT22;26978;44.830;-0.674;2023-05-10T05:22:48;11.60;99.90
35692;DHT22;26978;44.830;-0.674;2023-05-10T05:25:13;11.60;99.90
35692;DHT22;26978;44.830;-0.674;2023-05-10T05:27:40;11.60;99.90
35692;DHT22;26978;44.830;-0.674;2023-05-10T05:30:06;11.70;99.90
35692;DHT22;26978;44.830;-0.674;2023-05-10T05:32:32;11.70;99.90
35692;DHT22;26978;44.830;-0.674;2023-05-10T05:34:58;11.80;99.90
35692;DHT22;26978;44.830;-0.674;2023-05-10T05:37:23;11.80;99.90
35692;DHT22;26978;44.830;-0.674;2023-05-10T05:39:50;11.80;99.90
35692;DHT22;26978;44.830;-0.674;2023-05-10T05:42:15;11.80;99.90
35692;DHT22;26978;44.830;-0.674;2023-05-10T05:44:42;11.90;99.90
35692;DHT22;26978;44.830;-0.674;2023-05-10T05:47:08;11.90;99.90
35692;DHT22;26978;44.830;-0.674;2023-05-10T05:49:34;11.90;99.90
35692;DHT22;26978;44.830;-0.674;2023-05-10T05:52:01;12.00;99.90
35692;DHT22;26978;44.830;-0.674;2023-05-10T05:54:27;12.00;99.90
35692;DHT22;26978;44.830;-0.674;2023-05-10T05:57:00;12.00;99.90
35692;DHT22;26978;44.830;-0.674;2023-05-10T05:59:26;12.10;99.90
35692;DHT22;26978;44.830;-0.674;2023-05-10T06:01:51;12.10;99.90
35692;DHT22;26978;44.830;-0.674;2023-05-10T06:04:18;12.20;99.90
35692;DHT22;26978;44.830;-0.674;2023-05-10T06:06:44;12.30;99.90
35692;DHT22;26978;44.830;-0.674;2023-05-10T06:09:10;12.40;99.90
35692;DHT22;26978;44.830;-0.674;2023-05-10T06:11:36;12.40;99.90
35692;DHT22;26978;44.830;-0.674;2023-05-10T06:14:02;12.30;99.90
35692;DHT22;26978;44.830;-0.674;2023-05-10T06:16:30;12.30;99.90
35692;DHT22;26978;44.830;-0.674;2023-05-10T06:18:55;12.30;99.90
35692;DHT22;26978;44.830;-0.674;2023-05-10T06:21:21;12.30;99.90
35692;DHT22;26978;44.830;-0.674;2023-05-10T06:23:46;12.40;99.90
35692;DHT22;26978;44.830;-0.674;2023-05-10T06:26:12;12.50;99.90
35692;DHT22;26978;44.830;-0.674;2023-05-10T06:28:39;12.50;99.90
35692;DHT22;26978;44.830;-0.674;2023-05-10T06:31:05;12.50;99.90
35692;DHT22;26978;44.830;-0.674;2023-05-10T06:33:32;12.60;99.90
35692;DHT22;26978;44.830;-0.674;2023-05-10T06:35:58;12.60;99.90
35692;DHT22;26978;44.830;-0.674;2023-05-10T06:38:23;12.60;99.90
35692;DHT22;26978;44.830;-0.674;2023-05-10T06:40:49;12.60;99.90
35692;DHT22;26978;44.830;-0.674;2023-05-10T06:43:15;12.60;99.90
35692;DHT22;26978;44.830;-0.674;2023-05-10T06:45:41;12.60;99.90
35692;DHT22;26978;44.830;-0.674;2023-05-10T06:48:07;12.50;99.90
35692;DHT22;26978;44.830;-0.674;2023-05-10T06:50:33;12.40;99.90
35692;DHT22;26978;44.830;-0.674;2023-05-10T06:52:59;12.40;99.90
35692;DHT22;26978;44.830;-0.674;2023-05-10T06:55:25;12.40;99.90
35692;DHT22;26978;44.830;-0.674;2023-05-10T06:57:51;12.50;99.90
35692;DHT22;26978;44.830;-0.674;2023-05-10T07:00:18;12.80;99.90
35692;DHT22;26978;44.830;-0.674;2023-05-10T07:02:44;13.10;99.90
35692;DHT22;26978;44.830;-0.674;2023-05-10T07:05:09;13.30;99.90
35692;DHT22;26978;44.830;-0.674;2023-05-10T07:07:35;13.50;99.90
35692;DHT22;26978;44.830;-0.674;2023-05-10T07:10:01;13.60;99.90
35692;DHT22;26978;44.830;-0.674;2023-05-10T07:12:27;13.70;99.90
35692;DHT22;26978;44.830;-0.674;2023-05-10T07:14:53;13.90;99.90
35692;DHT22;26978;44.830;-0.674;2023-05-10T07:17:19;14.00;99.90
35692;DHT22;26978;44.830;-0.674;2023-05-10T07:19:45;14.10;99.90
35692;DHT22;26978;44.830;-0.674;2023-05-10T07:22:10;14.10;99.90
35692;DHT22;26978;44.830;-0.674;2023-05-10T07:24:36;14.10;99.90
35692;DHT22;26978;44.830;-0.674;2023-05-10T07:27:02;14.30;99.90
35692;DHT22;26978;44.830;-0.674;2023-05-10T07:29:28;14.50;99.90
35692;DHT22;26978;44.830;-0.674;2023-05-10T07:31:54;14.80;99.90
35692;DHT22;26978;44.830;-0.674;2023-05-10T07:34:20;14.90;99.90
35692;DHT22;26978;44.830;-0.674;2023-05-10T07:36:45;14.70;99.90
35692;DHT22;26978;44.830;-0.674;2023-05-10T07:39:11;14.60;99.90
35692;DHT22;26978;44.830;-0.674;2023-05-10T07:41:37;14.50;99.90
35692;DHT22;26978;44.830;-0.674;2023-05-10T07:44:04;14.60;99.90
35692;DHT22;26978;44.830;-0.674;2023-05-10T07:46:30;14.60;99.90
35692;DHT22;26978;44.830;-0.674;2023-05-10T07:48:55;14.40;99.90
35692;DHT22;26978;44.830;-0.674;2023-05-10T07:51:21;14.50;99.90
35692;DHT22;26978;44.830;-0.674;2023-05-10T07:53:47;14.60;99.90
35692;DHT22;26978;44.830;-0.674;2023-05-10T07:56:29;14.70;99.90
35692;DHT22;26978;44.830;-0.674;2023-05-10T07:58:57;14.80;99.90
35692;DHT22;26978;44.830;-0.674;2023-05-10T08:01:23;14.80;99.90
35692;DHT22;26978;44.830;-0.674;2023-05-10T08:03:49;14.80;99.90
35692;DHT22;26978;44.830;-0.674;2023-05-10T08:06:17;14.80;99.90
35692;DHT22;26978;44.830;-0.674;2023-05-10T08:08:43;14.80;99.90
35692;DHT22;26978;44.830;-0.674;2023-05-10T08:11:17;15.00;99.90
35692;DHT22;26978;44.830;-0.674;2023-05-10T08:13:47;15.00;99.90
35692;DHT22;26978;44.830;-0.674;2023-05-10T08:16:13;15.10;99.90
35692;DHT22;26978;44.830;-0.674;2023-05-10T08:18:39;14.90;99.90
35692;DHT22;26978;44.830;-0.674;2023-05-10T08:21:05;15.00;99.90
35692;DHT22;26978;44.830;-0.674;2023-05-10T08:23:31;15.00;99.90
35692;DHT22;26978;44.830;-0.674;2023-05-10T08:25:57;14.50;99.90
35692;DHT22;26978;44.830;-0.674;2023-05-10T08:28:22;13.50;99.90
35692;DHT22;26978;44.830;-0.674;2023-05-10T08:30:50;13.10;99.90
35692;DHT22;26978;44.830;-0.674;2023-05-10T08:33:15;13.10;99.90
35692;DHT22;26978;44.830;-0.674;2023-05-10T08:35:41;13.10;99.90
35692;DHT22;26978;44.830;-0.674;2023-05-10T08:38:07;13.20;99.90
35692;DHT22;26978;44.830;-0.674;2023-05-10T08:40:32;13.40;99.90
35692;DHT22;26978;44.830;-0.674;2023-05-10T08:43:11;13.40;99.90
35692;DHT22;26978;44.830;-0.674;2023-05-10T08:45:39;13.40;99.90
35692;DHT22;26978;44.830;-0.674;2023-05-10T08:48:06;13.60;99.90
35692;DHT22;26978;44.830;-0.674;2023-05-10T08:50:35;13.90;99.90
35692;DHT22;26978;44.830;-0.674;2023-05-10T08:53:05;14.30;99.90
35692;DHT22;26978;44.830;-0.674;2023-05-10T08:55:32;14.70;99.90
35692;DHT22;26978;44.830;-0.674;2023-05-10T08:57:59;15.10;99.90
35692;DHT22;26978;44.830;-0.674;2023-05-10T09:00:25;15.20;99.90
35692;DHT22;26978;44.830;-0.674;2023-05-10T09:02:51;15.30;99.90
35692;DHT22;26978;44.830;-0.674;2023-05-10T09:05:17;15.60;99.90
35692;DHT22;26978;44.830;-0.674;2023-05-10T09:07:43;15.70;99.90
35692;DHT22;26978;44.830;-0.674;2023-05-10T09:10:10;15.60;99.90
35692;DHT22;26978;44.830;-0.674;2023-05-10T09:12:36;15.70;99.90
35692;DHT22;26978;44.830;-0.674;2023-05-10T09:15:03;15.80;99.90
35692;DHT22;26978;44.830;-0.674;2023-05-10T09:17:31;15.50;99.90
35692;DHT22;26978;44.830;-0.674;2023-05-10T09:20:00;15.00;99.90
35692;DHT22;26978;44.830;-0.674;2023-05-10T09:22:27;14.50;99.90
35692;DHT22;26978;44.830;-0.674;2023-05-10T09:25:12;14.40;99.90
35692;DHT22;26978;44.830;-0.674;2023-05-10T09:27:44;14.50;99.90
35692;DHT22;26978;44.830;-0.674;2023-05-10T09:30:15;14.90;99.90
35692;DHT22;26978;44.830;-0.674;2023-05-10T09:32:45;15.10;99.90
35692;DHT22;26978;44.830;-0.674;2023-05-10T09:35:20;15.20;99.90
35692;DHT22;26978;44.830;-0.674;2023-05-10T09:37:48;15.00;99.90
35692;DHT22;26978;44.830;-0.674;2023-05-10T09:40:18;14.30;99.90
35692;DHT22;26978;44.830;-0.674;2023-05-10T09:43:02;13.60;99.90
35692;DHT22;26978;44.830;-0.674;2023-05-10T09:45:30;13.40;99.90
35692;DHT22;26978;44.830;-0.674;2023-05-10T09:47:57;13.40;99.90
35692;DHT22;26978;44.830;-0.674;2023-05-10T09:50:23;13.50;99.90
35692;DHT22;26978;44.830;-0.674;2023-05-10T09:52:49;13.60;99.90
35692;DHT22;26978;44.830;-0.674;2023-05-10T09:55:17;13.80;99.90
35692;DHT22;26978;44.830;-0.674;2023-05-10T09:57:44;13.80;99.90
35692;DHT22;26978;44.830;-0.674;2023-05-10T10:00:09;13.80;99.90
35692;DHT22;26978;44.830;-0.674;2023-05-10T10:02:35;14.00;99.90
35692;DHT22;26978;44.830;-0.674;2023-05-10T10:05:02;14.40;99.90
35692;DHT22;26978;44.830;-0.674;2023-05-10T10:07:28;14.50;99.90
35692;DHT22;26978;44.830;-0.674;2023-05-10T10:09:54;14.80;99.90
35692;DHT22;26978;44.830;-0.674;2023-05-10T10:12:20;15.00;99.90
35692;DHT22;26978;44.830;-0.674;2023-05-10T10:14:47;15.60;99.90
35692;DHT22;26978;44.830;-0.674;2023-05-10T10:17:13;15.30;99.90
35692;DHT22;26978;44.830;-0.674;2023-05-10T10:19:40;14.90;99.90
35692;DHT22;26978;44.830;-0.674;2023-05-10T10:22:06;14.40;99.90
35692;DHT22;26978;44.830;-0.674;2023-05-10T10:24:33;14.00;99.90
35692;DHT22;26978;44.830;-0.674;2023-05-10T10:27:26;13.90;99.90
35692;DHT22;26978;44.830;-0.674;2023-05-10T10:35:12;13.90;99.90
35692;DHT22;26978;44.830;-0.674;2023-05-10T10:37:54;13.80;99.90
35692;DHT22;26978;44.830;-0.674;2023-05-10T10:40:32;14.00;99.90
35692;DHT22;26978;44.830;-0.674;2023-05-10T10:46:12;14.80;99.90
35692;DHT22;26978;44.830;-0.674;2023-05-10T10:48:47;15.40;99.90
35692;DHT22;26978;44.830;-0.674;2023-05-10T10:52:12;15.70;99.90
35692;DHT22;26978;44.830;-0.674;2023-05-10T10:54:27;15.60;99.90
35692;DHT22;26978;44.830;-0.674;2023-05-10T10:57:17;15.60;99.90
35692;DHT22;26978;44.830;-0.674;2023-05-10T10:59:43;15.80;99.90
35692;DHT22;26978;44.830;-0.674;2023-05-10T11:02:09;16.10;99.90
35692;DHT22;26978;44.830;-0.674;2023-05-10T11:04:42;16.30;99.90
35692;DHT22;26978;44.830;-0.674;2023-05-10T11:07:21;16.80;99.90
35692;DHT22;26978;44.830;-0.674;2023-05-10T11:09:49;16.60;99.90
35692;DHT22;26978;44.830;-0.674;2023-05-10T11:12:15;16.70;99.90
35692;DHT22;26978;44.830;-0.674;2023-05-10T11:14:41;17.00;99.90
35692;DHT22;26978;44.830;-0.674;2023-05-10T11:17:24;17.40;99.90
35692;DHT22;26978;44.830;-0.674;2023-05-10T11:20:09;17.40;99.90
35692;DHT22;26978;44.830;-0.674;2023-05-10T11:23:13;17.20;99.90
35692;DHT22;26978;44.830;-0.674;2023-05-10T11:25:45;17.20;99.90
35692;DHT22;26978;44.830;-0.674;2023-05-10T11:28:11;17.30;99.90
35692;DHT22;26978;44.830;-0.674;2023-05-10T11:30:41;17.20;99.90
35692;DHT22;26978;44.830;-0.674;2023-05-10T11:33:07;17.20;99.90
35692;DHT22;26978;44.830;-0.674;2023-05-10T11:35:40;17.30;99.90
35692;DHT22;26978;44.830;-0.674;2023-05-10T11:38:10;17.30;99.90
35692;DHT22;26978;44.830;-0.674;2023-05-10T11:40:37;17.40;99.90
35692;DHT22;26978;44.830;-0.674;2023-05-10T11:43:03;17.70;99.90
35692;DHT22;26978;44.830;-0.674;2023-05-10T11:45:33;17.60;99.90
35692;DHT22;26978;44.830;-0.674;2023-05-10T11:47:59;17.90;99.90
35692;DHT22;26978;44.830;-0.674;2023-05-10T11:50:25;17.70;99.90
35692;DHT22;26978;44.830;-0.674;2023-05-10T11:53:00;17.60;99.90
35692;DHT22;26978;44.830;-0.674;2023-05-10T11:55:26;17.70;99.90
35692;DHT22;26978;44.830;-0.674;2023-05-10T11:57:52;17.70;99.90
35692;DHT22;26978;44.830;-0.674;2023-05-10T12:00:18;17.80;99.90
35692;DHT22;26978;44.830;-0.674;2023-05-10T12:02:45;17.90;99.90
35692;DHT22;26978;44.830;-0.674;2023-05-10T12:05:11;18.00;99.90
35692;DHT22;26978;44.830;-0.674;2023-05-10T12:07:36;18.00;99.90
35692;DHT22;26978;44.830;-0.674;2023-05-10T12:10:25;18.10;99.90
35692;DHT22;26978;44.830;-0.674;2023-05-10T12:12:52;17.90;99.90
35692;DHT22;26978;44.830;-0.674;2023-05-10T12:15:23;18.00;99.90
35692;DHT22;26978;44.830;-0.674;2023-05-10T12:17:49;18.20;99.90
35692;DHT22;26978;44.830;-0.674;2023-05-10T12:20:19;18.50;99.90
35692;DHT22;26978;44.830;-0.674;2023-05-10T12:22:56;18.40;99.90
35692;DHT22;26978;44.830;-0.674;2023-05-10T12:25:23;18.40;99.90
35692;DHT22;26978;44.830;-0.674;2023-05-10T12:27:54;18.50;99.90
35692;DHT22;26978;44.830;-0.674;2023-05-10T12:30:22;18.30;99.90
35692;DHT22;26978;44.830;-0.674;2023-05-10T12:32:48;17.80;99.90
35692;DHT22;26978;44.830;-0.674;2023-05-10T12:35:14;17.60;99.90
35692;DHT22;26978;44.830;-0.674;2023-05-10T12:37:41;18.10;99.90
35692;DHT22;26978;44.830;-0.674;2023-05-10T12:40:08;18.60;99.90
35692;DHT22;26978;44.830;-0.674;2023-05-10T12:42:35;19.40;99.90
35692;DHT22;26978;44.830;-0.674;2023-05-10T12:45:04;19.00;99.90
35692;DHT22;26978;44.830;-0.674;2023-05-10T12:47:31;18.90;99.90
35692;DHT22;26978;44.830;-0.674;2023-05-10T12:49:57;19.30;99.90
35692;DHT22;26978;44.830;-0.674;2023-05-10T12:52:24;19.40;99.90
35692;DHT22;26978;44.830;-0.674;2023-05-10T12:54:50;19.40;99.20
35692;DHT22;26978;44.830;-0.674;2023-05-10T12:57:16;19.30;99.30
35692;DHT22;26978;44.830;-0.674;2023-05-10T12:59:42;19.50;97.20
35692;DHT22;26978;44.830;-0.674;2023-05-10T13:02:08;19.00;99.90
35692;DHT22;26978;44.830;-0.674;2023-05-10T13:04:34;18.90;99.90
35692;DHT22;26978;44.830;-0.674;2023-05-10T13:06:59;18.80;99.90
35692;DHT22;26978;44.830;-0.674;2023-05-10T13:09:26;19.80;98.40
35692;DHT22;26978;44.830;-0.674;2023-05-10T13:11:52;20.60;99.90
35692;DHT22;26978;44.830;-0.674;2023-05-10T13:14:21;19.60;97.00
35692;DHT22;26978;44.830;-0.674;2023-05-10T13:16:47;18.90;99.90
35692;DHT22;26978;44.830;-0.674;2023-05-10T13:19:13;18.30;99.90
35692;DHT22;26978;44.830;-0.674;2023-05-10T13:21:39;18.20;99.90
35692;DHT22;26978;44.830;-0.674;2023-05-10T13:24:06;18.20;99.90
35692;DHT22;26978;44.830;-0.674;2023-05-10T13:26:32;18.20;99.90
35692;DHT22;26978;44.830;-0.674;2023-05-10T13:28:58;18.10;99.90
35692;DHT22;26978;44.830;-0.674;2023-05-10T13:31:24;17.90;99.90
35692;DHT22;26978;44.830;-0.674;2023-05-10T13:33:50;18.10;99.90
35692;DHT22;26978;44.830;-0.674;2023-05-10T13:36:16;18.60;99.90
35692;DHT22;26978;44.830;-0.674;2023-05-10T13:38:41;19.10;99.90
35692;DHT22;26978;44.830;-0.674;2023-05-10T13:41:07;20.10;99.90
35692;DHT22;26978;44.830;-0.674;2023-05-10T13:43:32;20.80;95.10
35692;DHT22;26978;44.830;-0.674;2023-05-10T13:45:58;20.40;95.20
35692;DHT22;26978;44.830;-0.674;2023-05-10T13:48:24;20.60;91.30
35692;DHT22;26978;44.830;-0.674;2023-05-10T13:50:49;20.70;94.70
35692;DHT22;26978;44.830;-0.674;2023-05-10T13:53:15;21.70;90.90
35692;DHT22;26978;44.830;-0.674;2023-05-10T13:55:41;20.50;90.90
35692;DHT22;26978;44.830;-0.674;2023-05-10T13:58:07;19.60;94.80
35692;DHT22;26978;44.830;-0.674;2023-05-10T14:00:32;19.70;96.70
35692;DHT22;26978;44.830;-0.674;2023-05-10T14:02:58;20.70;94.40
35692;DHT22;26978;44.830;-0.674;2023-05-10T14:05:23;21.20;96.70
35692;DHT22;26978;44.830;-0.674;2023-05-10T14:07:50;20.70;95.40
35692;DHT22;26978;44.830;-0.674;2023-05-10T14:10:16;19.70;99.20
35692;DHT22;26978;44.830;-0.674;2023-05-10T14:12:41;18.70;99.90
35692;DHT22;26978;44.830;-0.674;2023-05-10T14:15:07;18.10;99.90
35692;DHT22;26978;44.830;-0.674;2023-05-10T14:17:35;17.80;99.90
35692;DHT22;26978;44.830;-0.674;2023-05-10T14:20:01;17.60;99.90
35692;DHT22;26978;44.830;-0.674;2023-05-10T14:22:27;17.70;99.90
35692;DHT22;26978;44.830;-0.674;2023-05-10T14:24:53;19.40;99.90
35692;DHT22;26978;44.830;-0.674;2023-05-10T14:27:18;18.80;99.90
35692;DHT22;26978;44.830;-0.674;2023-05-10T14:29:44;18.00;99.90
35692;DHT22;26978;44.830;-0.674;2023-05-10T14:32:10;17.40;99.90
35692;DHT22;26978;44.830;-0.674;2023-05-10T14:34:36;17.60;99.90
35692;DHT22;26978;44.830;-0.674;2023-05-10T14:37:01;17.80;99.90
35692;DHT22;26978;44.830;-0.674;2023-05-10T14:39:27;18.30;99.90
35692;DHT22;26978;44.830;-0.674;2023-05-10T14:41:55;18.80;98.80
35692;DHT22;26978;44.830;-0.674;2023-05-10T14:44:21;18.50;99.40
35692;DHT22;26978;44.830;-0.674;2023-05-10T14:46:47;18.10;99.90
35692;DHT22;26978;44.830;-0.674;2023-05-10T14:49:13;18.90;96.80
35692;DHT22;26978;44.830;-0.674;2023-05-10T14:51:39;19.00;96.10
35692;DHT22;26978;44.830;-0.674;2023-05-10T14:54:05;18.60;97.10
35692;DHT22;26978;44.830;-0.674;2023-05-10T14:56:31;17.80;98.50
35692;DHT22;26978;44.830;-0.674;2023-05-10T14:58:57;17.60;99.90
35692;DHT22;26978;44.830;-0.674;2023-05-10T15:01:23;17.40;99.90
35692;DHT22;26978;44.830;-0.674;2023-05-10T15:03:48;17.50;99.90
35692;DHT22;26978;44.830;-0.674;2023-05-10T15:06:15;18.30;99.90
35692;DHT22;26978;44.830;-0.674;2023-05-10T15:08:43;18.40;96.90
35692;DHT22;26978;44.830;-0.674;2023-05-10T15:11:09;18.30;96.90
35692;DHT22;26978;44.830;-0.674;2023-05-10T15:13:34;18.20;98.20
35692;DHT22;26978;44.830;-0.674;2023-05-10T15:16:01;18.00;99.90
35692;DHT22;26978;44.830;-0.674;2023-05-10T15:18:26;17.80;99.90
35692;DHT22;26978;44.830;-0.674;2023-05-10T15:20:52;17.70;99.90
35692;DHT22;26978;44.830;-0.674;2023-05-10T15:23:17;17.70;99.90
35692;DHT22;26978;44.830;-0.674;2023-05-10T15:25:43;17.60;99.30
35692;DHT22;26978;44.830;-0.674;2023-05-10T15:28:09;18.20;99.90
35692;DHT22;26978;44.830;-0.674;2023-05-10T15:30:34;19.70;99.30
35692;DHT22;26978;44.830;-0.674;2023-05-10T15:33:00;21.20;94.50
35692;DHT22;26978;44.830;-0.674;2023-05-10T15:35:26;22.20;88.60
35692;DHT22;26978;44.830;-0.674;2023-05-10T15:37:52;21.30;89.60
35692;DHT22;26978;44.830;-0.674;2023-05-10T15:40:17;20.70;92.00
35692;DHT22;26978;44.830;-0.674;2023-05-10T15:42:43;19.90;95.10
35692;DHT22;26978;44.830;-0.674;2023-05-10T15:45:09;19.00;97.00
35692;DHT22;26978;44.830;-0.674;2023-05-10T15:47:36;18.60;99.80
35692;DHT22;26978;44.830;-0.674;2023-05-10T15:50:01;18.50;99.90